KAPN/APN METAR and TAF weather

Enter ICAO airport designator
Station Type Date Time Source
KAPN METAR 2020/05/30 03:54 UTC NOAA

KAPN 300354Z AUTO 31003KT 10SM OVC025 14/13 A2996 RMK AO2 RAE21B33E46 SLP148 P0001 T01390128


Station Type Date Time Source
KAPN Decoded METAR 2020/05/30 03:54 UTC NOAA

ALPENA COUNTY REGIONAL AIRPORT, MI, United States (KAPN) 45-05N 083-34W 210M
May 29, 2020 - 11:54 PM EDT / 2020.05.30 0354 UTC
Wind: from the NW (310 degrees) at 3 MPH (3 KT):0
Visibility: 10 mile(s):0
Sky conditions: overcast
Precipitation last hour: 0.01 inches
Temperature: 57.0 F (13.9 C)
Dew Point: 55.0 F (12.8 C)
Relative Humidity: 93%
Pressure (altimeter): 29.96 in. Hg (1014 hPa)
ob: KAPN 300354Z AUTO 31003KT 10SM OVC025 14/13 A2996 RMK AO2 RAE21B33E46 SLP148 P0001 T01390128
cycle: 4

Station Type Date Time Source
KAPN TAF 2020/05/30 01:58 UTC NOAA

TAF
AMD KAPN 300057Z 3001/3024 01006KT P6SM VCSH SCT025 OVC040
TEMPO 3001/3002 3SM -TSRA BKN025CB
FM300600 29006KT P6SM BKN025
FM301500 32011G20KT P6SM BKN040

Example: see airport list